createdAt,value
2019-02-24T00:02:02.082Z,-2.47
2019-02-24T00:04:51.869Z,-2.37
2019-02-24T00:07:41.701Z,-2.32
2019-02-24T00:10:31.504Z,-2.49
2019-02-24T00:13:21.326Z,-2.20
2019-02-24T00:16:11.144Z,-2.06
2019-02-24T00:19:00.964Z,-2.23
2019-02-24T00:21:50.734Z,-2.20
2019-02-24T00:24:21.691Z,-2.44
2019-02-24T00:27:11.492Z,-2.46
2019-02-24T00:30:01.303Z,-2.38
2019-02-24T00:32:51.058Z,-2.33
2019-02-24T00:35:40.864Z,-2.33
2019-02-24T00:38:30.649Z,-2.39
2019-02-24T00:41:20.487Z,-2.52
2019-02-24T00:44:10.259Z,-2.50
2019-02-24T00:47:00.084Z,-2.44
2019-02-24T00:49:49.873Z,-2.55
2019-02-24T00:52:39.665Z,-2.44
2019-02-24T00:55:30.710Z,-2.33
2019-02-24T00:58:16.121Z,-2.40
2019-02-24T01:00:56.842Z,-2.38
2019-02-24T01:06:42.130Z,-2.39
2019-02-24T01:09:31.955Z,-2.32
2019-02-24T01:12:21.794Z,-2.29
2019-02-24T01:15:11.618Z,-2.29
2019-02-24T01:18:01.443Z,-2.32
2019-02-24T01:20:51.273Z,-2.29
2019-02-24T01:23:21.675Z,-2.17
2019-02-24T01:26:11.481Z,-2.22
2019-02-24T01:29:01.291Z,-2.38
2019-02-24T01:31:51.173Z,-2.35
2019-02-24T01:34:41.002Z,-2.33
2019-02-24T01:37:30.859Z,-2.26
2019-02-24T01:40:20.695Z,-2.32
2019-02-24T01:43:10.470Z,-2.32
2019-02-24T01:45:40.899Z,-2.17
2019-02-24T01:48:30.684Z,-2.26
2019-02-24T01:51:20.519Z,-2.33
2019-02-24T01:54:10.381Z,-2.28
2019-02-24T01:57:00.260Z,-2.25
2019-02-24T01:59:50.104Z,-2.25
2019-02-24T02:02:40.000Z,-2.30
2019-02-24T02:05:29.815Z,-2.13
2019-02-24T02:08:19.619Z,-2.43
2019-02-24T02:11:09.614Z,-2.36
2019-02-24T02:13:59.422Z,-2.52
2019-02-24T02:16:49.270Z,-2.44
2019-02-24T02:19:39.079Z,-2.20
2019-02-24T02:22:28.883Z,-2.22
2019-02-24T02:25:18.680Z,-2.26
2019-02-24T02:28:08.510Z,-2.29
2019-02-24T02:30:58.351Z,-2.23
2019-02-24T02:33:48.140Z,-2.20
2019-02-24T02:36:37.963Z,-2.22
2019-02-24T02:39:27.778Z,-2.21
2019-02-24T02:42:17.570Z,-2.27
2019-02-24T02:44:47.978Z,-2.37
2019-02-24T02:47:37.771Z,-2.24
2019-02-24T02:50:27.598Z,-2.20
2019-02-24T02:53:17.397Z,-2.07
2019-02-24T02:55:47.888Z,-2.13
2019-02-24T02:58:37.660Z,-2.28
2019-02-24T03:01:08.083Z,-2.37
2019-02-24T03:03:57.873Z,-2.44
2019-02-24T03:09:40.111Z,-2.45
2019-02-24T03:12:29.921Z,-2.45
2019-02-24T03:15:19.725Z,-2.45
2019-02-24T03:18:09.562Z,-2.37
2019-02-24T03:20:59.366Z,-2.28
2019-02-24T03:23:49.213Z,-2.45
2019-02-24T03:26:39.003Z,-2.26
2019-02-24T03:29:28.782Z,-2.16
2019-02-24T03:32:18.595Z,-2.23
2019-02-24T03:35:08.434Z,-2.18
2019-02-24T03:37:58.246Z,-2.07
2019-02-24T03:40:28.640Z,-2.25
2019-02-24T03:43:18.459Z,-2.34
2019-02-24T03:46:08.262Z,-2.38
2019-02-24T03:48:58.069Z,-2.49
2019-02-24T03:51:47.859Z,-2.20
2019-02-24T03:54:37.679Z,-2.12
2019-02-24T03:57:27.553Z,-2.07
2019-02-24T04:00:17.433Z,-2.21
2019-02-24T04:02:47.865Z,-2.34
2019-02-24T04:05:37.685Z,-2.35
2019-02-24T04:08:27.488Z,-2.20
2019-02-24T04:10:57.883Z,-2.12
2019-02-24T04:13:47.694Z,-2.05
2019-02-24T04:16:37.499Z,-2.15
2019-02-24T04:19:27.332Z,-2.29
2019-02-24T04:22:17.209Z,-2.30
2019-02-24T04:25:09.494Z,-2.18
2019-02-24T04:27:59.262Z,-2.29
2019-02-24T04:30:49.150Z,-2.17
2019-02-24T04:33:19.649Z,-2.24
2019-02-24T04:36:09.453Z,-2.37
2019-02-24T04:38:39.982Z,-2.26
2019-02-24T04:41:29.792Z,-2.37
2019-02-24T04:44:20.545Z,-2.22
2019-02-24T04:47:10.350Z,-2.04
2019-02-24T04:50:00.263Z,-2.15
2019-02-24T04:52:50.044Z,-2.06
2019-02-24T04:55:39.876Z,-2.18
2019-02-24T04:58:10.303Z,-2.32
2019-02-24T05:01:00.160Z,-2.34
2019-02-24T05:03:50.041Z,-2.21
2019-02-24T05:09:29.182Z,-1.93
2019-02-24T05:12:18.958Z,-1.88
2019-02-24T05:14:49.371Z,-1.80
2019-02-24T05:17:38.984Z,-1.86
2019-02-24T05:20:28.790Z,-1.90
2019-02-24T05:23:18.587Z,-1.96
2019-02-24T05:26:08.582Z,-1.94
2019-02-24T05:28:58.765Z,-1.98
2019-02-24T05:31:48.566Z,-2.04
2019-02-24T05:34:38.421Z,-1.78
2019-02-24T05:37:08.849Z,-1.72
2019-02-24T05:39:39.278Z,-1.57
2019-02-24T05:42:29.476Z,-1.56
2019-02-24T05:45:19.269Z,-1.58
2019-02-24T05:48:09.094Z,-1.55
2019-02-24T05:51:17.912Z,-1.62
2019-02-24T05:53:48.504Z,-1.62
2019-02-24T05:56:38.275Z,-1.64
2019-02-24T05:59:28.440Z,-1.66
2019-02-24T06:02:18.197Z,-1.64
2019-02-24T06:04:48.629Z,-1.58
2019-02-24T06:07:19.038Z,-1.56
2019-02-24T06:10:09.335Z,-1.36
2019-02-24T06:12:40.082Z,-1.29
2019-02-24T06:15:29.936Z,-1.19
2019-02-24T06:18:19.747Z,-0.96
2019-02-24T06:21:09.590Z,-0.86
2019-02-24T06:23:40.031Z,-0.86
2019-02-24T06:26:30.279Z,-0.91
2019-02-24T06:29:12.738Z,-0.97
2019-02-24T06:32:02.566Z,-1.00
2019-02-24T06:34:52.354Z,-0.99
2019-02-24T06:37:42.154Z,-1.08
2019-02-24T06:40:31.969Z,-1.05
2019-02-24T06:43:22.278Z,-1.15
2019-02-24T06:46:12.094Z,-1.15
2019-02-24T06:49:01.914Z,-1.20
2019-02-24T06:51:51.697Z,-1.01
2019-02-24T06:54:41.503Z,-1.00
2019-02-24T06:57:31.382Z,-0.91
2019-02-24T07:00:21.210Z,-0.83
2019-02-24T07:03:11.526Z,-0.83
2019-02-24T07:05:42.171Z,-0.81
2019-02-24T07:08:31.962Z,-0.72
2019-02-24T07:11:21.775Z,-0.63
2019-02-24T07:14:11.536Z,-0.53
2019-02-24T07:17:01.361Z,-0.43
2019-02-24T07:19:51.155Z,-0.39
2019-02-24T07:22:40.950Z,-0.22
2019-02-24T07:25:30.732Z,-0.22
2019-02-24T07:28:01.212Z,-0.08
2019-02-24T07:30:50.969Z,0.09
2019-02-24T07:33:40.789Z,0.24
2019-02-24T07:36:30.549Z,0.26
2019-02-24T07:39:22.135Z,0.40
2019-02-24T07:42:12.314Z,0.52
2019-02-24T07:45:21.056Z,0.72
2019-02-24T07:48:11.324Z,0.85
2019-02-24T07:51:01.193Z,1.08
2019-02-24T07:53:51.010Z,1.14
2019-02-24T07:56:40.835Z,1.15
2019-02-24T07:59:30.649Z,1.10
2019-02-24T08:02:20.449Z,1.17
2019-02-24T08:05:10.253Z,1.15
2019-02-24T08:08:00.087Z,1.11
2019-02-24T08:10:49.900Z,1.09
2019-02-24T08:13:39.726Z,1.11
2019-02-24T08:16:29.551Z,1.11
2019-02-24T08:19:19.410Z,1.21
2019-02-24T08:22:09.272Z,1.20
2019-02-24T08:24:59.067Z,1.29
2019-02-24T08:27:48.892Z,1.37
2019-02-24T08:30:41.645Z,1.39
2019-02-24T08:33:21.527Z,1.35
2019-02-24T08:36:11.377Z,1.43
2019-02-24T08:39:01.141Z,1.53
2019-02-24T08:41:31.665Z,1.58
2019-02-24T08:44:22.269Z,1.66
2019-02-24T08:46:59.226Z,1.81
2019-02-24T08:49:49.148Z,1.94
2019-02-24T08:52:38.933Z,2.04
2019-02-24T08:55:28.766Z,2.08
2019-02-24T08:58:19.165Z,2.09
2019-02-24T09:01:09.011Z,2.21
2019-02-24T09:03:58.845Z,2.60
2019-02-24T09:06:29.340Z,2.63
2019-02-24T09:08:59.844Z,2.80
2019-02-24T09:11:30.304Z,2.91
2019-02-24T09:14:00.707Z,3.02
2019-02-24T09:16:50.545Z,3.08
2019-02-24T09:19:40.324Z,3.26
2019-02-24T09:22:22.582Z,3.30
2019-02-24T09:24:55.256Z,3.30
2019-02-24T09:27:25.655Z,3.22
2019-02-24T09:30:26.881Z,3.40
2019-02-24T09:32:58.698Z,3.40
2019-02-24T09:35:30.721Z,3.55
2019-02-24T09:38:31.901Z,3.76
2019-02-24T09:41:03.421Z,3.76
2019-02-24T09:43:53.405Z,3.95
2019-02-24T09:46:54.645Z,4.17
2019-02-24T09:49:38.472Z,4.35
2019-02-24T09:52:09.237Z,4.35
2019-02-24T09:54:59.037Z,4.52
2019-02-24T09:58:00.695Z,4.57
2019-02-24T10:00:31.534Z,4.57
2019-02-24T10:03:03.629Z,4.72
2019-02-24T10:06:13.533Z,4.82
2019-02-24T10:08:43.959Z,4.99
2019-02-24T10:11:14.348Z,5.14
2019-02-24T10:13:44.574Z,5.18
2019-02-24T10:16:34.382Z,5.13
2019-02-24T10:19:25.136Z,4.77
2019-02-24T10:22:15.042Z,4.84
2019-02-24T10:24:45.831Z,4.82
2019-02-24T10:27:35.657Z,4.77
2019-02-24T10:30:44.541Z,5.03
2019-02-24T10:33:34.497Z,4.89
2019-02-24T10:36:05.016Z,4.86
2019-02-24T10:38:37.005Z,4.78
2019-02-24T10:41:26.902Z,4.89
2019-02-24T10:43:57.399Z,4.88
2019-02-24T10:46:27.793Z,4.84
2019-02-24T10:49:17.562Z,4.77
2019-02-24T10:51:47.988Z,4.96
2019-02-24T10:54:18.408Z,4.86
2019-02-24T10:56:48.899Z,5.10
2019-02-24T10:59:38.686Z,5.03
2019-02-24T11:02:28.485Z,4.95
2019-02-24T11:05:18.643Z,4.91
2019-02-24T11:08:08.526Z,5.27
2019-02-24T11:10:40.546Z,4.97
2019-02-24T11:13:30.379Z,4.98
2019-02-24T11:16:20.196Z,4.81
2019-02-24T11:18:52.242Z,4.68
2019-02-24T11:21:22.800Z,4.76
2019-02-24T11:23:53.251Z,5.02
2019-02-24T11:26:23.680Z,4.85
2019-02-24T11:29:13.532Z,4.90
2019-02-24T11:32:03.314Z,4.97
2019-02-24T11:34:33.722Z,4.89
2019-02-24T11:37:04.120Z,5.09
2019-02-24T11:39:34.553Z,5.20
2019-02-24T11:42:24.695Z,5.19
2019-02-24T11:44:55.176Z,5.07
2019-02-24T11:47:25.620Z,5.20
2019-02-24T11:50:15.496Z,5.22
2019-02-24T11:53:05.422Z,5.26
2019-02-24T11:55:36.337Z,5.30
2019-02-24T11:58:28.223Z,5.43
2019-02-24T12:01:18.497Z,5.79
2019-02-24T12:04:08.793Z,5.55
2019-02-24T12:06:39.233Z,5.26
2019-02-24T12:09:29.136Z,5.44
2019-02-24T12:11:59.564Z,5.47
2019-02-24T12:14:49.407Z,5.18
2019-02-24T12:17:19.842Z,5.12
2019-02-24T12:19:50.285Z,5.22
2019-02-24T12:22:40.205Z,5.55
2019-02-24T12:25:29.952Z,5.63
2019-02-24T12:28:00.379Z,5.40
2019-02-24T12:30:30.919Z,5.24
2019-02-24T12:33:03.379Z,5.27
2019-02-24T12:35:53.202Z,5.25
2019-02-24T12:38:23.641Z,5.26
2019-02-24T12:40:54.194Z,5.16
2019-02-24T12:46:50.186Z,5.01
2019-02-24T12:49:40.053Z,5.18
2019-02-24T12:52:30.013Z,5.38
2019-02-24T12:55:19.941Z,5.42
2019-02-24T12:57:50.431Z,5.09
2019-02-24T13:00:21.189Z,4.80
2019-02-24T13:03:11.106Z,4.80
2019-02-24T13:06:01.066Z,4.68
2019-02-24T13:08:50.954Z,4.53
2019-02-24T13:11:21.423Z,4.53
2019-02-24T13:14:11.491Z,4.64
2019-02-24T13:19:47.531Z,4.46
2019-02-24T13:22:37.351Z,4.52
2019-02-24T13:25:27.200Z,4.65
2019-02-24T13:28:16.991Z,4.58
2019-02-24T13:30:47.399Z,4.62
2019-02-24T13:33:37.353Z,4.67
2019-02-24T13:36:28.227Z,4.81
2019-02-24T13:39:18.033Z,5.17
2019-02-24T13:42:07.927Z,5.18
2019-02-24T13:44:39.945Z,4.83
2019-02-24T13:47:10.344Z,4.85
2019-02-24T13:50:00.517Z,4.83
2019-02-24T13:52:50.403Z,4.83
2019-02-24T13:55:40.182Z,4.68
2019-02-24T13:58:41.773Z,4.78
2019-02-24T14:01:12.328Z,4.78
2019-02-24T14:04:02.151Z,4.87
2019-02-24T14:06:51.938Z,4.96
2019-02-24T14:09:22.372Z,5.02
2019-02-24T14:12:12.146Z,4.87
2019-02-24T14:15:02.451Z,5.08
2019-02-24T14:17:52.298Z,5.08
2019-02-24T14:20:42.186Z,5.12
2019-02-24T14:23:32.220Z,5.10
2019-02-24T14:26:02.782Z,5.24
2019-02-24T14:28:33.318Z,5.19
2019-02-24T14:31:23.121Z,5.21
2019-02-24T14:34:12.988Z,5.23
2019-02-24T14:36:45.036Z,5.17
2019-02-24T14:39:34.899Z,5.16
2019-02-24T14:42:05.273Z,5.23
2019-02-24T14:44:55.197Z,5.30
2019-02-24T14:47:44.964Z,5.14
2019-02-24T14:50:15.440Z,5.16
2019-02-24T14:53:05.592Z,5.23
2019-02-24T14:55:36.190Z,5.11
2019-02-24T15:04:36.189Z,5.20
2019-02-24T15:07:26.017Z,5.04
2019-02-24T15:10:16.331Z,4.97
2019-02-24T15:13:06.127Z,4.88
2019-02-24T15:15:56.030Z,5.00
2019-02-24T15:18:45.895Z,4.90
2019-02-24T15:21:16.342Z,4.89
2019-02-24T15:24:06.172Z,4.93
2019-02-24T15:26:56.059Z,4.82
2019-02-24T15:29:45.895Z,4.80
2019-02-24T15:32:16.359Z,4.95
2019-02-24T15:35:06.283Z,4.92
2019-02-24T15:37:56.101Z,4.79
2019-02-24T15:40:45.954Z,4.90
2019-02-24T15:43:16.551Z,4.85
2019-02-24T15:45:47.174Z,4.67
2019-02-24T15:48:37.016Z,4.61
2019-02-24T15:51:26.883Z,4.70
2019-02-24T15:53:57.343Z,4.76
2019-02-24T15:56:47.132Z,4.83
2019-02-24T15:59:17.512Z,4.65
2019-02-24T16:01:47.972Z,4.66
2019-02-24T16:04:18.402Z,4.68
2019-02-24T16:07:08.248Z,4.72
2019-02-24T16:09:58.043Z,4.55
2019-02-24T16:12:47.945Z,4.61
2019-02-24T16:15:18.434Z,4.64
2019-02-24T16:17:48.994Z,4.77
2019-02-24T16:20:21.813Z,4.70
2019-02-24T16:22:52.260Z,4.59
2019-02-24T16:25:42.056Z,4.61
2019-02-24T16:28:31.966Z,4.57
2019-02-24T16:31:02.378Z,4.52
2019-02-24T16:33:52.235Z,4.61
2019-02-24T16:36:42.154Z,4.69
2019-02-24T16:39:32.012Z,4.65
2019-02-24T16:42:02.442Z,4.67
2019-02-24T16:44:52.593Z,4.67
2019-02-24T16:47:23.265Z,4.65
2019-02-24T16:50:25.128Z,4.86
2019-02-24T16:52:56.152Z,4.86
2019-02-24T16:55:46.056Z,4.82
2019-02-24T16:58:35.898Z,4.82
2019-02-24T17:01:06.373Z,4.73
2019-02-24T17:03:56.229Z,4.73
2019-02-24T17:06:46.029Z,4.75
2019-02-24T17:09:35.927Z,4.76
2019-02-24T17:12:06.363Z,4.79
2019-02-24T17:14:56.158Z,4.88
2019-02-24T17:17:46.913Z,4.91
2019-02-24T17:20:18.230Z,4.89
2019-02-24T17:22:49.196Z,4.84
2019-02-24T17:25:19.777Z,4.97
2019-02-24T17:27:50.221Z,4.91
2019-02-24T17:30:40.041Z,4.85
2019-02-24T17:33:32.080Z,4.93
2019-02-24T17:36:15.182Z,4.86
2019-02-24T17:39:17.937Z,4.84
2019-02-24T17:41:48.391Z,4.84
2019-02-24T17:44:38.259Z,4.97
2019-02-24T17:47:28.134Z,5.01
2019-02-24T17:49:58.623Z,5.01
2019-02-24T17:52:29.025Z,5.04
2019-02-24T17:55:02.020Z,5.05
2019-02-24T17:57:34.100Z,5.20
2019-02-24T18:03:38.791Z,5.11
2019-02-24T18:06:07.436Z,5.00
2019-02-24T18:08:57.337Z,4.98
2019-02-24T18:11:47.148Z,5.08
2019-02-24T18:14:36.978Z,5.02
2019-02-24T18:17:07.430Z,5.16
2019-02-24T18:19:57.344Z,5.15
2019-02-24T18:22:47.222Z,5.22
2019-02-24T18:25:37.075Z,5.30
2019-02-24T18:28:26.920Z,5.12
2019-02-24T18:30:57.403Z,5.14
2019-02-24T18:33:48.540Z,5.16
2019-02-24T18:36:30.379Z,5.27
2019-02-24T18:39:20.288Z,5.18
2019-02-24T18:42:10.233Z,5.34
2019-02-24T18:44:40.880Z,5.32
2019-02-24T18:47:11.369Z,5.24
2019-02-24T18:50:01.222Z,5.23
2019-02-24T18:52:51.112Z,5.32
2019-02-24T18:55:40.954Z,5.42
2019-02-24T18:58:31.902Z,5.39
2019-02-24T19:01:02.375Z,5.44
2019-02-24T19:03:57.810Z,5.46
2019-02-24T19:06:38.961Z,5.48
2019-02-24T19:09:10.080Z,5.43
2019-02-24T19:11:59.972Z,5.35
2019-02-24T19:14:30.512Z,5.34
2019-02-24T19:17:01.212Z,5.34
2019-02-24T19:19:51.015Z,5.42
2019-02-24T19:22:21.562Z,5.46
2019-02-24T19:25:11.459Z,5.60
2019-02-24T19:27:42.233Z,5.58
2019-02-24T19:30:32.047Z,5.50
2019-02-24T19:33:21.930Z,5.67
2019-02-24T19:35:52.350Z,5.59
2019-02-24T19:38:42.177Z,5.56
2019-02-24T19:41:32.940Z,5.56
2019-02-24T19:44:03.368Z,5.50
2019-02-24T19:46:53.258Z,5.51
2019-02-24T19:49:23.674Z,5.50
2019-02-24T19:51:54.370Z,5.62
2019-02-24T19:57:34.650Z,5.65
2019-02-24T20:00:06.137Z,5.66
2019-02-24T20:02:56.056Z,5.61
2019-02-24T20:05:27.204Z,5.60
2019-02-24T20:07:58.208Z,5.54
2019-02-24T20:10:48.096Z,5.56
2019-02-24T20:13:37.942Z,5.52
2019-02-24T20:16:08.491Z,5.53
2019-02-24T20:18:58.663Z,5.49
2019-02-24T20:21:30.914Z,5.43
2019-02-24T20:24:01.466Z,5.42
2019-02-24T20:26:32.118Z,5.46
2019-02-24T20:29:21.960Z,5.40
2019-02-24T20:31:52.369Z,5.46
2019-02-24T20:34:42.202Z,5.39
2019-02-24T20:37:31.978Z,5.41
2019-02-24T20:40:02.394Z,5.49
2019-02-24T20:42:52.285Z,5.55
2019-02-24T20:45:42.192Z,5.58
2019-02-24T20:51:28.969Z,5.56
2019-02-24T20:54:01.151Z,5.50
2019-02-24T20:56:31.700Z,5.61
2019-02-24T20:59:02.153Z,5.63
2019-02-24T21:01:52.011Z,5.69
2019-02-24T21:05:01.271Z,5.56
2019-02-24T21:07:33.349Z,5.54
2019-02-24T21:10:42.064Z,5.55
2019-02-24T21:13:32.022Z,5.64
2019-02-24T21:16:22.409Z,5.68
2019-02-24T21:19:12.350Z,5.69
2019-02-24T21:22:02.297Z,5.62
2019-02-24T21:24:33.015Z,5.68
2019-02-24T21:27:03.470Z,5.74
2019-02-24T21:29:53.328Z,5.72
2019-02-24T21:32:29.544Z,5.70
2019-02-24T21:35:19.448Z,5.78
2019-02-24T21:38:09.311Z,5.76
2019-02-24T21:40:59.463Z,5.85
2019-02-24T21:43:49.300Z,5.84
2019-02-24T21:46:39.136Z,5.71
2019-02-24T21:49:29.066Z,5.75
2019-02-24T21:52:18.948Z,5.80
2019-02-24T21:54:49.360Z,5.86
2019-02-24T21:57:39.210Z,5.97
2019-02-24T22:00:29.087Z,5.90
2019-02-24T22:03:19.858Z,5.88
2019-02-24T22:05:50.411Z,6.06
2019-02-24T22:08:40.221Z,6.05
2019-02-24T22:11:30.070Z,6.08
2019-02-24T22:14:19.902Z,6.10
2019-02-24T22:16:50.315Z,6.06
2019-02-24T22:19:40.123Z,6.07
2019-02-24T22:22:29.888Z,6.03
2019-02-24T22:25:00.283Z,6.19
2019-02-24T22:27:30.791Z,6.17
2019-02-24T22:30:01.215Z,6.06
2019-02-24T22:32:31.638Z,6.14
2019-02-24T22:35:02.125Z,6.20
2019-02-24T22:37:52.104Z,6.17
2019-02-24T22:40:22.507Z,6.17
2019-02-24T22:43:12.322Z,6.17
2019-02-24T22:45:43.134Z,6.14
2019-02-24T22:48:32.952Z,6.23
2019-02-24T22:51:04.947Z,6.32
2019-02-24T22:53:35.394Z,6.39
2019-02-24T22:56:25.125Z,6.27
2019-02-24T22:58:55.544Z,6.20
2019-02-24T23:01:45.087Z,6.36
2019-02-24T23:04:34.916Z,6.45
2019-02-24T23:07:06.917Z,6.42
2019-02-24T23:09:37.390Z,6.38
2019-02-24T23:12:27.148Z,6.46
2019-02-24T23:15:16.982Z,6.37
2019-02-24T23:17:47.369Z,6.40
2019-02-24T23:20:17.744Z,6.41
2019-02-24T23:22:48.119Z,6.41
2019-02-24T23:25:37.930Z,6.28
2019-02-24T23:28:10.005Z,6.40
2019-02-24T23:30:59.899Z,6.43
2019-02-24T23:33:30.341Z,6.38
2019-02-24T23:36:20.143Z,6.40
2019-02-24T23:42:32.451Z,6.33
2019-02-24T23:45:22.602Z,6.32
2019-02-24T23:47:53.274Z,6.45
2019-02-24T23:50:43.075Z,6.26
2019-02-24T23:53:32.896Z,6.33
2019-02-24T23:56:03.298Z,6.36
2019-02-24T23:58:53.074Z,6.44
